Time;durP1;ratioP1;P1;durP2;ratioP2;P2;SDS_P1;SDS_P2;PMS_P1;PMS_P2;Temp;Humidity;BMP_temperature;BMP_pressure;BME280_temperature;BME280_humidity;BME280_pressure;Samples;Min_cycle;Max_cycle;Signal;HPM_P1;HPM_P2
2022/06/16 00:00:24;;;;;;;28.93;8.00;;;21.10;17.20;;;;;;4981242;28;20468;-62
2022/06/16 00:02:52;;;;;;;32.13;8.40;;;21.00;17.10;;;;;;4984169;28;20472;-63
2022/06/16 00:05:22;;;;;;;29.07;8.70;;;21.00;17.20;;;;;;4988050;28;20453;-62
2022/06/16 00:07:49;;;;;;;28.00;7.97;;;21.00;17.90;;;;;;4985550;28;20477;-62
2022/06/16 00:10:17;;;;;;;29.30;8.27;;;20.90;18.20;;;;;;4994176;28;20461;-63
2022/06/16 00:12:44;;;;;;;27.00;7.43;;;20.90;18.20;;;;;;4982756;28;20460;-63
2022/06/16 00:15:13;;;;;;;28.80;7.63;;;20.80;18.30;;;;;;4991017;28;20500;-62
2022/06/16 00:17:41;;;;;;;31.37;7.73;;;20.80;18.20;;;;;;4988749;28;20489;-61
2022/06/16 00:20:09;;;;;;;29.13;9.20;;;20.70;18.10;;;;;;4995770;28;20467;-59
2022/06/16 00:22:36;;;;;;;26.87;7.77;;;20.70;18.40;;;;;;4987772;28;20460;-61
2022/06/16 00:25:02;;;;;;;27.60;7.57;;;20.70;18.30;;;;;;4987618;28;20456;-61
2022/06/16 00:27:30;;;;;;;27.27;8.03;;;20.60;18.20;;;;;;4988821;28;20488;-60
2022/06/16 00:29:56;;;;;;;28.90;7.80;;;20.50;18.40;;;;;;4992905;28;20476;-60
2022/06/16 00:32:23;;;;;;;27.77;7.90;;;20.50;18.40;;;;;;4989309;28;20471;-59
2022/06/16 00:34:51;;;;;;;28.33;8.20;;;20.50;18.80;;;;;;4988114;28;20461;-61
2022/06/16 00:37:18;;;;;;;26.97;8.10;;;20.50;18.90;;;;;;4992541;28;20500;-61
2022/06/16 00:39:45;;;;;;;28.07;8.60;;;20.40;19.30;;;;;;4995562;28;20471;-62
2022/06/16 00:42:16;;;;;;;26.80;8.67;;;20.40;19.50;;;;;;4990263;28;20464;-61
2022/06/16 00:44:46;;;;;;;28.40;9.50;;;20.30;19.70;;;;;;4986930;28;20492;-60
2022/06/16 00:47:13;;;;;;;28.10;10.23;;;20.30;20.00;;;;;;4992656;28;20456;-60
2022/06/16 00:49:45;;;;;;;26.97;9.13;;;20.30;20.20;;;;;;4997211;28;20469;-59
2022/06/16 00:52:15;;;;;;;27.20;9.33;;;20.20;21.00;;;;;;4987154;28;20464;-61
2022/06/16 00:54:47;;;;;;;26.77;8.87;;;20.20;21.30;;;;;;4985867;28;20472;-61
2022/06/16 00:57:19;;;;;;;26.93;10.00;;;20.10;21.30;;;;;;4988136;28;20487;-60
2022/06/16 00:59:46;;;;;;;30.00;9.63;;;20.20;21.30;;;;;;4986932;28;20469;-62
2022/06/16 01:04:52;;;;;;;28.80;9.90;;;20.20;21.20;;;;;;5013648;23;20536;-69
2022/06/16 01:07:25;;;;;;;30.17;9.17;;;20.10;21.30;;;;;;5005683;28;20484;-69
2022/06/16 01:09:54;;;;;;;29.67;9.63;;;20.10;22.20;;;;;;5006914;28;20462;-69
2022/06/16 01:15:47;;;;;;;28.77;8.23;;;20.10;22.20;;;;;;5006074;28;20492;-69
2022/06/16 01:18:23;;;;;;;31.17;9.30;;;20.00;21.90;;;;;;5006159;28;20491;-69
2022/06/16 01:20:56;;;;;;;32.30;8.93;;;20.00;22.20;;;;;;5004852;28;21235;-69
2022/06/16 01:24:00;;;;;;;29.60;8.93;;;20.00;21.90;;;;;;5002026;28;20464;-69
2022/06/16 01:26:46;;;;;;;27.47;8.90;;;20.00;22.20;;;;;;5006679;28;20491;-69
2022/06/16 01:29:20;;;;;;;29.00;8.73;;;19.90;22.40;;;;;;5005571;28;20460;-69
2022/06/16 01:31:55;;;;;;;28.60;8.80;;;19.80;22.50;;;;;;5006943;28;20472;-69
2022/06/16 01:34:29;;;;;;;31.20;8.90;;;19.80;22.70;;;;;;5004249;28;20486;-69
2022/06/16 01:37:04;;;;;;;28.63;7.90;;;19.80;22.70;;;;;;5007634;28;20483;-69
2022/06/16 01:39:39;;;;;;;27.90;8.57;;;19.80;23.60;;;;;;5007160;28;20466;-69
2022/06/16 01:42:12;;;;;;;30.23;9.57;;;19.80;23.60;;;;;;5005770;28;21086;-69
2022/06/16 01:44:45;;;;;;;27.30;8.80;;;19.70;23.70;;;;;;5004507;28;20909;-69
2022/06/16 01:47:16;;;;;;;29.20;10.00;;;19.70;23.90;;;;;;5003974;28;20475;-69
2022/06/16 01:49:49;;;;;;;26.90;8.10;;;19.70;23.80;;;;;;5002200;28;20460;-68
2022/06/16 01:52:20;;;;;;;28.43;9.40;;;19.70;23.60;;;;;;5004889;28;20483;-69
2022/06/16 01:54:55;;;;;;;28.47;9.23;;;19.60;23.80;;;;;;5002710;28;20467;-69
2022/06/16 01:57:27;;;;;;;29.27;9.30;;;19.60;24.00;;;;;;5004414;28;20505;-69
2022/06/16 01:59:59;;;;;;;29.47;9.87;;;19.50;24.20;;;;;;5005761;28;20468;-69
2022/06/16 02:02:30;;;;;;;29.67;10.00;;;19.40;24.70;;;;;;5000769;28;20485;-69
2022/06/16 02:05:01;;;;;;;28.00;9.30;;;19.40;24.80;;;;;;5007676;28;20515;-69
2022/06/16 02:07:36;;;;;;;26.93;9.80;;;19.30;25.30;;;;;;5004837;28;20476;-69
2022/06/16 02:10:09;;;;;;;28.03;9.53;;;19.30;25.20;;;;;;5006715;28;20834;-69
2022/06/16 02:15:32;;;;;;;30.80;10.10;;;19.20;25.40;;;;;;5004122;28;20456;-69
2022/06/16 02:18:00;;;;;;;29.53;10.70;;;19.20;25.50;;;;;;5001855;28;20484;-69
2022/06/16 02:20:35;;;;;;;30.63;10.00;;;19.20;25.20;;;;;;5003911;28;20460;-69
2022/06/16 02:23:03;;;;;;;30.13;9.63;;;19.20;25.20;;;;;;5005714;28;21014;-69
2022/06/16 02:25:29;;;;;;;30.40;10.20;;;19.10;25.30;;;;;;5004344;28;20464;-69
2022/06/16 02:27:56;;;;;;;27.87;9.60;;;19.10;25.60;;;;;;5001562;28;20480;-68
2022/06/16 02:30:28;;;;;;;28.37;10.93;;;19.00;26.50;;;;;;5002709;28;20468;-69
2022/06/16 02:33:04;;;;;;;27.83;10.37;;;18.90;26.90;;;;;;5006047;28;21023;-69
2022/06/16 02:35:37;;;;;;;27.23;10.30;;;18.90;27.40;;;;;;5004030;28;20463;-69
2022/06/16 02:38:13;;;;;;;27.83;10.50;;;18.80;27.70;;;;;;5002292;28;20960;-69
2022/06/16 02:40:53;;;;;;;27.57;9.60;;;18.80;27.70;;;;;;5005011;28;20470;-69
2022/06/16 02:43:47;;;;;;;27.93;10.40;;;18.70;28.10;;;;;;5003674;28;20466;-69
2022/06/16 02:46:22;;;;;;;30.60;10.70;;;18.60;28.40;;;;;;5003773;28;20467;-69
2022/06/16 02:48:57;;;;;;;30.23;10.03;;;18.60;28.30;;;;;;5000220;28;20464;-69
2022/06/16 02:51:31;;;;;;;28.53;11.00;;;18.50;28.30;;;;;;5003308;28;21448;-69
2022/06/16 02:54:09;;;;;;;26.93;9.73;;;18.50;28.50;;;;;;5006132;28;20459;-69
2022/06/16 02:56:40;;;;;;;27.70;10.40;;;18.40;28.30;;;;;;5005971;28;20481;-68
2022/06/16 02:59:12;;;;;;;29.60;10.47;;;18.40;28.80;;;;;;5001816;28;20524;-69
2022/06/16 03:01:41;;;;;;;30.03;11.07;;;18.40;28.70;;;;;;5006016;28;20480;-69
2022/06/16 03:04:12;;;;;;;31.20;11.10;;;18.30;29.40;;;;;;5003553;28;20468;-69
2022/06/16 03:06:39;;;;;;;28.40;10.30;;;18.30;28.80;;;;;;5003524;28;20570;-69
2022/06/16 03:09:06;;;;;;;29.03;9.20;;;18.30;28.80;;;;;;5003077;28;20511;-69
2022/06/16 03:11:34;;;;;;;27.33;9.70;;;18.30;28.80;;;;;;5002464;28;20472;-69
2022/06/16 03:14:05;;;;;;;28.23;9.13;;;18.30;29.00;;;;;;5004904;28;20990;-69
2022/06/16 03:16:32;;;;;;;27.90;10.00;;;18.20;28.80;;;;;;5002633;28;20492;-69
2022/06/16 03:19:00;;;;;;;29.07;9.50;;;18.20;28.60;;;;;;5003376;28;20480;-69
2022/06/16 03:21:27;;;;;;;30.17;10.13;;;18.10;29.30;;;;;;5002746;28;20480;-68
2022/06/16 03:23:54;;;;;;;32.70;10.33;;;18.10;28.70;;;;;;5004427;28;20828;-69
2022/06/16 03:26:21;;;;;;;33.10;10.17;;;18.10;28.50;;;;;;5004209;28;20553;-68
2022/06/16 03:28:49;;;;;;;27.67;9.00;;;18.10;28.50;;;;;;5004833;28;20464;-69
2022/06/16 03:31:16;;;;;;;28.83;10.30;;;18.10;28.70;;;;;;5003844;28;20471;-69
2022/06/16 03:33:43;;;;;;;28.13;9.23;;;18.10;28.80;;;;;;5004858;28;20472;-69
2022/06/16 03:36:12;;;;;;;31.53;10.07;;;18.00;28.90;;;;;;5004632;28;20467;-68
2022/06/16 03:38:42;;;;;;;28.60;9.67;;;18.00;29.20;;;;;;5005344;28;20483;-69
2022/06/16 03:41:09;;;;;;;30.23;9.97;;;18.10;29.20;;;;;;5003061;28;20522;-69
2022/06/16 03:43:36;;;;;;;29.40;10.43;;;18.10;29.40;;;;;;5004583;28;20464;-69
2022/06/16 03:46:03;;;;;;;30.13;10.67;;;18.10;29.50;;;;;;5002868;28;20460;-69
2022/06/16 03:48:30;;;;;;;29.20;9.73;;;18.10;29.60;;;;;;5002894;28;20464;-69
2022/06/16 03:50:57;;;;;;;27.77;9.63;;;18.20;29.80;;;;;;5002514;28;20463;-69
2022/06/16 03:53:25;;;;;;;27.83;9.73;;;18.20;30.00;;;;;;5003798;28;20463;-69
2022/06/16 03:55:52;;;;;;;28.00;9.07;;;18.20;29.90;;;;;;5000523;28;20972;-69
2022/06/16 03:58:19;;;;;;;29.70;9.93;;;18.30;29.80;;;;;;5003252;28;20499;-69
2022/06/16 04:00:46;;;;;;;30.30;11.17;;;18.30;29.50;;;;;;5000302;28;21198;-69
2022/06/16 04:05:57;;;;;;;31.23;10.20;;;18.40;29.60;;;;;;4997335;28;20506;-69
2022/06/16 04:08:25;;;;;;;29.83;10.27;;;18.50;29.30;;;;;;5000997;28;20452;-69
2022/06/16 04:10:52;;;;;;;30.50;11.27;;;18.50;29.10;;;;;;5002975;28;20966;-69
2022/06/16 04:13:19;;;;;;;32.80;10.00;;;18.60;28.90;;;;;;5002948;28;20459;-69
2022/06/16 04:15:46;;;;;;;31.83;11.10;;;18.60;28.90;;;;;;5004848;28;21144;-69
2022/06/16 04:18:12;;;;;;;28.97;9.73;;;18.70;29.10;;;;;;5002885;28;21110;-69
2022/06/16 04:20:39;;;;;;;31.63;10.80;;;18.80;29.00;;;;;;5003192;28;20464;-69
2022/06/16 04:23:11;;;;;;;28.97;10.70;;;18.80;29.10;;;;;;5003581;28;20468;-69
2022/06/16 04:25:39;;;;;;;30.80;10.80;;;18.90;29.30;;;;;;4999966;28;20470;-69
2022/06/16 04:28:08;;;;;;;29.27;10.13;;;19.00;29.80;;;;;;5004267;28;21008;-70
2022/06/16 04:30:35;;;;;;;31.43;9.87;;;19.20;29.00;;;;;;5002915;28;20472;-71
2022/06/16 04:33:02;;;;;;;27.97;9.40;;;19.70;29.50;;;;;;5005475;28;20459;-70
2022/06/16 04:35:29;;;;;;;30.50;9.53;;;20.60;28.20;;;;;;5003273;28;20474;-70
2022/06/16 04:37:56;;;;;;;33.20;9.93;;;21.50;25.40;;;;;;5004520;28;20479;-69
2022/06/16 04:40:23;;;;;;;30.13;9.13;;;22.30;22.90;;;;;;5002169;28;20464;-70
2022/06/16 04:42:51;;;;;;;30.10;9.23;;;22.50;21.20;;;;;;5002748;28;20878;-70
2022/06/16 04:45:18;;;;;;;31.23;9.47;;;22.20;21.40;;;;;;4999135;28;20466;-71
2022/06/16 04:47:45;;;;;;;32.17;10.23;;;21.80;22.00;;;;;;5003378;28;20484;-70
2022/06/16 04:50:17;;;;;;;32.00;9.43;;;21.50;22.60;;;;;;5003568;28;20498;-70
2022/06/16 04:52:44;;;;;;;30.10;9.50;;;21.30;22.90;;;;;;5003075;28;20459;-70
2022/06/16 04:55:11;;;;;;;31.83;10.10;;;21.20;23.10;;;;;;5001255;28;20479;-71
2022/06/16 04:57:38;;;;;;;33.57;9.30;;;21.00;23.50;;;;;;5002272;28;20694;-69
2022/06/16 05:00:10;;;;;;;35.43;10.50;;;20.90;23.80;;;;;;5002680;28;20494;-70
2022/06/16 05:02:37;;;;;;;31.30;9.60;;;20.80;24.00;;;;;;5005898;28;20476;-69
2022/06/16 05:05:04;;;;;;;31.50;10.97;;;20.80;23.90;;;;;;5006230;28;20467;-70
2022/06/16 05:07:31;;;;;;;30.60;9.67;;;20.80;24.30;;;;;;5004075;28;20907;-70
2022/06/16 05:09:57;;;;;;;30.30;10.73;;;20.80;24.40;;;;;;5006623;28;20817;-70
2022/06/16 05:12:24;;;;;;;33.70;10.00;;;20.80;24.20;;;;;;5005012;28;20459;-69
2022/06/16 05:14:52;;;;;;;32.03;10.37;;;20.90;24.30;;;;;;5007625;28;21034;-70
2022/06/16 05:17:20;;;;;;;30.60;10.27;;;21.00;24.20;;;;;;5005475;28;20490;-71
2022/06/16 05:19:47;;;;;;;33.20;10.10;;;21.10;24.40;;;;;;5006627;28;20523;-70
2022/06/16 05:22:14;;;;;;;29.30;9.53;;;21.10;24.20;;;;;;5007455;28;20471;-70
2022/06/16 05:24:41;;;;;;;28.50;9.33;;;21.10;24.30;;;;;;5006897;28;20543;-70
2022/06/16 05:27:08;;;;;;;30.50;10.33;;;21.20;24.50;;;;;;5004535;28;20476;-70
2022/06/16 05:29:34;;;;;;;30.90;10.43;;;21.40;24.20;;;;;;5003154;28;20456;-72
2022/06/16 05:32:01;;;;;;;29.50;9.40;;;21.40;23.90;;;;;;5007179;28;20479;-70
2022/06/16 05:34:29;;;;;;;30.00;10.07;;;21.40;23.90;;;;;;5004945;28;20466;-70
2022/06/16 05:36:56;;;;;;;30.47;9.67;;;21.40;23.90;;;;;;5006659;28;20549;-70
2022/06/16 05:39:23;;;;;;;29.10;9.70;;;21.40;23.80;;;;;;5006125;28;20500;-70
2022/06/16 05:41:50;;;;;;;38.23;10.30;;;21.40;24.00;;;;;;5006311;28;21012;-70
2022/06/16 05:44:17;;;;;;;33.70;9.70;;;21.40;24.70;;;;;;5007779;28;20471;-72
2022/06/16 05:46:44;;;;;;;32.30;10.37;;;21.40;24.10;;;;;;5004386;28;20484;-71
2022/06/16 05:49:12;;;;;;;29.37;9.30;;;21.40;23.90;;;;;;5007142;28;20466;-63
2022/06/16 05:51:41;;;;;;;30.27;9.53;;;21.40;23.80;;;;;;5004550;28;20480;-63
2022/06/16 05:54:08;;;;;;;30.83;9.57;;;21.70;24.30;;;;;;5007140;28;20460;-63
2022/06/16 05:56:35;;;;;;;32.73;9.70;;;22.40;24.10;;;;;;5002873;28;20839;-63
2022/06/16 05:59:03;;;;;;;31.27;9.77;;;22.70;22.40;;;;;;5005001;28;20497;-63
2022/06/16 06:01:29;;;;;;;31.67;9.70;;;22.70;22.10;;;;;;5002247;28;20558;-62
2022/06/16 06:03:56;;;;;;;31.13;10.30;;;22.70;21.80;;;;;;5005134;28;20472;-63
2022/06/16 06:06:23;;;;;;;32.43;9.13;;;22.70;21.50;;;;;;5004485;28;20491;-63
2022/06/16 06:17:12;;;;;;;33.90;10.20;;;23.10;20.70;;;;;;5003181;28;20471;-63
2022/06/16 06:19:39;;;;;;;31.47;8.83;;;23.60;20.10;;;;;;5002804;28;20851;-63
2022/06/16 06:22:11;;;;;;;35.90;9.70;;;23.90;20.10;;;;;;5004950;28;20468;-63
2022/06/16 06:24:41;;;;;;;30.57;9.23;;;24.20;19.40;;;;;;4997769;28;20861;-63
2022/06/16 06:27:14;;;;;;;32.27;8.60;;;26.00;18.70;;;;;;5002559;28;21060;-63
2022/06/16 06:29:41;;;;;;;33.80;8.63;;;29.00;13.20;;;;;;5002784;28;20466;-63
2022/06/16 06:32:08;;;;;;;29.83;7.73;;;31.70;7.90;;;;;;4999125;28;21023;-63
2022/06/16 06:34:35;;;;;;;29.50;7.67;;;32.10;5.70;;;;;;4999426;28;20468;-63
2022/06/16 06:37:02;;;;;;;29.70;6.73;;;32.80;5.40;;;;;;5005912;28;21239;-63
2022/06/16 06:39:30;;;;;;;30.87;6.73;;;34.70;3.30;;;;;;5001683;28;20579;-63
2022/06/16 06:41:58;;;;;;;27.90;6.37;;;36.60;1.00;;;;;;5006530;28;20475;-63
2022/06/16 06:44:25;;;;;;;28.20;6.70;;;38.40;1.00;;;;;;4998689;28;20460;-63
2022/06/16 06:46:53;;;;;;;26.93;6.10;;;39.70;1.00;;;;;;5003920;28;20543;-63
2022/06/16 06:49:20;;;;;;;28.20;5.47;;;41.00;1.00;;;;;;4996727;28;20452;-63
2022/06/16 06:51:47;;;;;;;25.83;5.60;;;42.20;1.00;;;;;;5006284;28;20460;-64
2022/06/16 06:54:14;;;;;;;29.03;5.40;;;43.20;1.00;;;;;;5006915;28;20455;-64
2022/06/16 06:56:41;;;;;;;24.70;5.03;;;44.00;1.00;;;;;;5008234;28;20498;-63
2022/06/16 06:59:15;;;;;;;27.00;4.90;;;44.80;1.00;;;;;;5008084;28;20490;-63
2022/06/16 07:01:42;;;;;;;25.80;6.30;;;45.50;1.00;;;;;;5007854;28;20502;-63
2022/06/16 07:04:09;;;;;;;27.00;4.97;;;46.50;1.00;;;;;;5002096;28;20482;-64
2022/06/16 07:06:37;;;;;;;25.63;4.37;;;47.30;1.00;;;;;;5001322;28;20510;-63
2022/06/16 07:09:04;;;;;;;24.73;4.87;;;45.70;1.00;;;;;;5001508;28;20567;-64
2022/06/16 07:11:30;;;;;;;25.97;5.37;;;42.80;1.00;;;;;;5002117;28;20473;-64
2022/06/16 07:13:58;;;;;;;28.50;4.87;;;40.30;1.00;;;;;;4999143;28;20456;-63
2022/06/16 07:16:26;;;;;;;26.70;5.30;;;38.40;1.00;;;;;;4997802;28;20853;-63
2022/06/16 07:18:53;;;;;;;27.13;5.03;;;36.90;1.00;;;;;;5003909;28;20483;-64
2022/06/16 07:21:20;;;;;;;26.47;5.43;;;35.70;1.00;;;;;;5003875;28;20471;-63
2022/06/16 07:23:47;;;;;;;27.80;5.57;;;34.40;1.00;;;;;;5000463;28;20966;-63
2022/06/16 07:26:13;;;;;;;30.63;6.43;;;33.30;1.00;;;;;;5000857;28;20457;-63
2022/06/16 07:28:40;;;;;;;27.70;6.00;;;32.40;1.70;;;;;;5002061;28;20456;-63
2022/06/16 07:31:07;;;;;;;29.00;5.63;;;31.50;3.20;;;;;;4999905;28;21039;-63
2022/06/16 07:33:35;;;;;;;26.43;5.33;;;31.00;4.70;;;;;;4999595;28;20462;-63
2022/06/16 07:36:03;;;;;;;30.07;5.23;;;31.10;5.40;;;;;;5001704;28;20466;-63
2022/06/16 07:38:30;;;;;;;27.30;5.20;;;31.00;5.80;;;;;;5003639;28;20495;-63
2022/06/16 07:43:37;;;;;;;26.80;5.20;;;30.80;5.50;;;;;;5000435;28;20999;-63
2022/06/16 07:46:04;;;;;;;28.37;4.90;;;30.30;5.70;;;;;;5004082;28;20462;-63
2022/06/16 07:48:31;;;;;;;27.80;4.97;;;30.10;6.60;;;;;;5002734;28;20456;-64
2022/06/16 07:50:59;;;;;;;30.07;4.83;;;31.80;5.10;;;;;;5001885;28;20472;-63
2022/06/16 07:53:26;;;;;;;34.13;4.60;;;34.20;3.90;;;;;;4998506;28;21175;-63
2022/06/16 07:55:53;;;;;;;27.10;4.90;;;37.90;1.00;;;;;;5001262;28;20468;-63
2022/06/16 07:58:20;;;;;;;32.47;5.33;;;41.00;1.00;;;;;;4999522;28;20490;-63
2022/06/16 08:00:47;;;;;;;25.07;4.23;;;40.50;1.00;;;;;;4997274;28;20480;-63
2022/06/16 08:03:13;;;;;;;24.13;3.70;;;40.60;1.00;;;;;;5002961;28;20482;-63
2022/06/16 08:05:40;;;;;;;23.97;3.87;;;42.80;1.00;;;;;;4997424;28;20463;-63
2022/06/16 08:08:09;;;;;;;23.40;4.43;;;45.10;1.00;;;;;;4993368;23;20493;-67
2022/06/16 08:10:36;;;;;;;24.80;4.60;;;46.90;1.00;;;;;;4980918;28;20464;-65
2022/06/16 08:13:03;;;;;;;22.83;3.90;;;48.10;1.00;;;;;;4973911;28;20460;-65
2022/06/16 08:15:30;;;;;;;23.83;4.57;;;49.00;1.00;;;;;;4990687;28;20982;-67
2022/06/16 08:17:57;;;;;;;22.83;4.20;;;50.00;1.00;;;;;;4991946;28;20752;-66
2022/06/16 08:20:24;;;;;;;21.90;3.90;;;50.90;1.00;;;;;;4996095;28;20486;-69
2022/06/16 08:22:51;;;;;;;21.57;3.77;;;50.40;1.00;;;;;;4998561;28;20479;-65
2022/06/16 08:25:19;;;;;;;22.70;4.20;;;50.40;1.00;;;;;;4996951;28;20476;-67
2022/06/16 08:27:49;;;;;;;22.20;3.87;;;50.20;1.00;;;;;;4992290;28;20483;-65
2022/06/16 08:30:18;;;;;;;24.57;4.47;;;48.30;1.00;;;;;;4989887;28;20564;-66
2022/06/16 08:32:45;;;;;;;22.43;4.23;;;46.20;1.00;;;;;;4992316;28;20472;-68
2022/06/16 08:35:12;;;;;;;24.97;5.20;;;44.60;1.00;;;;;;4998122;28;20494;-68
2022/06/16 08:37:39;;;;;;;23.40;4.37;;;45.20;1.00;;;;;;4996858;28;20461;-68
2022/06/16 08:40:08;;;;;;;22.80;4.13;;;46.30;1.00;;;;;;5003032;28;20475;-67
2022/06/16 08:42:43;;;;;;;24.43;4.60;;;47.30;1.00;;;;;;4999432;28;20490;-64
2022/06/16 08:45:18;;;;;;;21.70;4.47;;;49.00;1.00;;;;;;4988783;28;20488;-63
2022/06/16 08:47:50;;;;;;;22.80;4.60;;;50.30;1.00;;;;;;4992492;28;21018;-64
2022/06/16 08:50:28;;;;;;;22.00;4.00;;;51.50;1.00;;;;;;4992929;28;20546;-66
2022/06/16 08:53:09;;;;;;;21.77;4.53;;;51.90;1.00;;;;;;4990762;28;20587;-67
2022/06/16 08:55:46;;;;;;;22.87;4.87;;;50.10;1.00;;;;;;5000239;28;20472;-67
2022/06/16 08:58:19;;;;;;;22.30;4.20;;;47.40;1.00;;;;;;4999723;28;20978;-65
2022/06/16 09:00:49;;;;;;;24.20;5.33;;;45.50;1.00;;;;;;4996671;28;20510;-68
2022/06/16 09:03:22;;;;;;;23.87;4.97;;;46.10;1.00;;;;;;5004233;28;20487;-67
2022/06/16 09:05:56;;;;;;;24.27;4.73;;;45.30;1.00;;;;;;4993025;28;20478;-67
2022/06/16 09:08:37;;;;;;;23.27;4.20;;;46.50;1.00;;;;;;4997436;28;20473;-67
2022/06/16 09:11:11;;;;;;;22.57;4.20;;;48.30;1.00;;;;;;4995852;28;20471;-68
2022/06/16 09:14:08;;;;;;;24.57;5.27;;;50.20;1.00;;;;;;5000292;28;20482;-65
2022/06/16 09:16:45;;;;;;;23.50;3.93;;;48.90;1.00;;;;;;4994281;28;20468;-68
2022/06/16 09:19:42;;;;;;;23.53;4.73;;;48.70;1.00;;;;;;4992815;28;20484;-67
2022/06/16 09:22:23;;;;;;;23.83;5.00;;;48.80;1.00;;;;;;5004096;28;20464;-68
2022/06/16 09:25:07;;;;;;;23.03;4.30;;;48.10;1.00;;;;;;4997370;28;20491;-68
2022/06/16 09:27:38;;;;;;;23.23;4.27;;;47.10;1.00;;;;;;5003825;28;20455;-67
2022/06/16 09:30:10;;;;;;;28.37;5.17;;;45.90;1.00;;;;;;4991275;28;20465;-68
2022/06/16 09:32:42;;;;;;;24.00;4.30;;;44.90;1.00;;;;;;5003642;28;20484;-66
2022/06/16 09:35:13;;;;;;;23.00;4.40;;;43.80;1.00;;;;;;4996014;28;20491;-67
2022/06/16 09:37:45;;;;;;;26.00;4.67;;;42.70;1.00;;;;;;4996179;28;20461;-67
2022/06/16 09:40:16;;;;;;;24.13;4.90;;;41.80;1.00;;;;;;4999225;28;20866;-67
2022/06/16 09:42:48;;;;;;;25.57;5.00;;;40.90;1.00;;;;;;4991622;28;20943;-67
2022/06/16 09:45:23;;;;;;;23.63;4.87;;;40.20;1.00;;;;;;4991156;28;20595;-66
2022/06/16 09:47:55;;;;;;;24.33;5.30;;;39.60;1.00;;;;;;4993659;28;20499;-66
2022/06/16 09:50:30;;;;;;;27.50;4.87;;;39.10;1.00;;;;;;5002854;28;20456;-67
2022/06/16 09:53:03;;;;;;;25.80;4.63;;;38.60;1.00;;;;;;5001385;28;20863;-67
2022/06/16 09:55:34;;;;;;;27.53;5.93;;;38.20;1.00;;;;;;5001183;28;20479;-67
2022/06/16 09:58:09;;;;;;;25.27;4.50;;;37.90;1.00;;;;;;4993311;28;20460;-68
2022/06/16 10:00:38;;;;;;;23.53;3.53;;;37.70;1.00;;;;;;4999771;28;20547;-68
2022/06/16 10:03:19;;;;;;;24.10;4.13;;;37.50;1.00;;;;;;5001848;28;20540;-68
2022/06/16 10:05:58;;;;;;;25.63;4.10;;;37.20;1.00;;;;;;5000637;28;21192;-67
2022/06/16 10:08:32;;;;;;;24.40;4.00;;;37.00;1.00;;;;;;5003731;28;20471;-68
2022/06/16 10:11:04;;;;;;;25.27;3.70;;;36.80;1.00;;;;;;4994772;28;20465;-67
2022/06/16 10:13:37;;;;;;;29.00;4.77;;;36.60;1.00;;;;;;5007531;28;20499;-68
2022/06/16 10:16:13;;;;;;;24.57;4.20;;;36.40;1.00;;;;;;4996654;28;20453;-67
2022/06/16 10:18:41;;;;;;;26.87;4.40;;;36.30;1.00;;;;;;4994167;28;20467;-68
2022/06/16 10:21:10;;;;;;;24.97;4.27;;;36.20;1.00;;;;;;4996094;28;20477;-68
2022/06/16 10:23:42;;;;;;;24.50;4.13;;;36.30;1.00;;;;;;5002748;28;20479;-68
2022/06/16 10:26:11;;;;;;;25.20;4.00;;;36.30;1.00;;;;;;5006997;28;20506;-69
2022/06/16 10:28:45;;;;;;;24.60;3.87;;;36.20;1.00;;;;;;5005127;28;20588;-67
2022/06/16 10:31:32;;;;;;;25.30;4.30;;;36.10;1.00;;;;;;5000871;28;20484;-68
2022/06/16 10:33:59;;;;;;;25.57;4.00;;;36.00;1.00;;;;;;5003219;28;20480;-66
2022/06/16 10:36:26;;;;;;;26.60;4.07;;;35.80;1.00;;;;;;5000377;28;20965;-67
2022/06/16 10:39:09;;;;;;;25.13;4.80;;;35.50;1.00;;;;;;4991893;28;20468;-68
2022/06/16 10:41:40;;;;;;;26.80;4.70;;;35.40;1.00;;;;;;4995418;28;20460;-68
2022/06/16 10:44:13;;;;;;;26.70;4.23;;;35.30;1.00;;;;;;4996081;28;20476;-67
2022/06/16 10:46:49;;;;;;;24.43;4.00;;;35.20;1.00;;;;;;5000741;28;20526;-67
2022/06/16 10:49:19;;;;;;;24.20;4.07;;;35.00;1.00;;;;;;4999552;28;20467;-67
2022/06/16 10:51:55;;;;;;;25.20;4.67;;;35.10;1.00;;;;;;4991906;28;20841;-68
2022/06/16 10:54:28;;;;;;;38.07;4.53;;;35.00;1.00;;;;;;5002539;28;20507;-67
2022/06/16 10:57:06;;;;;;;24.10;3.90;;;34.90;1.00;;;;;;5001906;28;21092;-67
2022/06/16 10:59:40;;;;;;;27.00;4.00;;;34.90;1.00;;;;;;4994877;28;20523;-69
2022/06/16 11:02:20;;;;;;;25.20;4.00;;;34.70;1.00;;;;;;4989501;28;20480;-68
2022/06/16 11:04:51;;;;;;;24.60;4.00;;;34.60;1.00;;;;;;5000633;28;20503;-68
2022/06/16 11:07:21;;;;;;;25.17;4.30;;;34.40;1.00;;;;;;4998511;28;20870;-68
2022/06/16 11:09:49;;;;;;;26.83;4.17;;;34.40;1.00;;;;;;4989520;28;20464;-69
2022/06/16 11:12:19;;;;;;;29.30;4.70;;;34.10;1.00;;;;;;4993915;28;20456;-67
2022/06/16 11:14:50;;;;;;;27.33;4.30;;;33.90;1.00;;;;;;4995297;28;20483;-67
2022/06/16 11:17:22;;;;;;;26.10;3.90;;;33.70;1.00;;;;;;4999638;28;20448;-68
2022/06/16 11:19:52;;;;;;;27.73;4.03;;;33.40;1.00;;;;;;5003694;28;20491;-67
2022/06/16 11:22:31;;;;;;;26.97;4.47;;;33.20;1.00;;;;;;4993554;28;20468;-67
2022/06/16 11:25:03;;;;;;;26.93;4.70;;;32.90;1.00;;;;;;4991774;28;20900;-68
2022/06/16 11:27:39;;;;;;;27.47;4.67;;;32.70;1.00;;;;;;4992248;28;20453;-68
2022/06/16 11:30:29;;;;;;;29.53;4.77;;;32.60;1.00;;;;;;4993691;28;20955;-67
2022/06/16 11:32:57;;;;;;;26.67;4.97;;;32.40;1.00;;;;;;4993527;28;20484;-66
2022/06/16 11:35:32;;;;;;;25.80;3.67;;;32.20;1.00;;;;;;4996364;28;21034;-66
2022/06/16 11:38:03;;;;;;;27.70;4.17;;;32.20;1.00;;;;;;5002375;28;20986;-68
2022/06/16 11:40:40;;;;;;;25.47;4.57;;;32.10;1.00;;;;;;4992809;28;20488;-67
2022/06/16 11:43:20;;;;;;;26.43;4.60;;;32.00;1.00;;;;;;4996144;28;20920;-67
2022/06/16 11:45:54;;;;;;;26.47;4.43;;;31.90;1.00;;;;;;4994275;28;20468;-67
2022/06/16 11:48:30;;;;;;;26.60;4.50;;;31.80;1.00;;;;;;4999190;28;21191;-69
2022/06/16 11:51:03;;;;;;;25.00;4.80;;;31.70;1.00;;;;;;4999713;28;20456;-68
2022/06/16 11:53:52;;;;;;;27.73;4.87;;;31.70;1.00;;;;;;4998597;28;20479;-67
2022/06/16 11:56:30;;;;;;;29.00;4.50;;;31.60;1.00;;;;;;4996346;28;20486;-67
2022/06/16 11:59:20;;;;;;;27.10;4.40;;;31.50;1.00;;;;;;5003344;28;20978;-67
2022/06/16 12:01:50;;;;;;;25.70;4.13;;;31.30;1.00;;;;;;4999851;28;20491;-68
2022/06/16 12:04:52;;;;;;;27.13;4.93;;;31.20;1.50;;;;;;4988107;28;20483;-66
2022/06/16 12:07:42;;;;;;;26.57;5.13;;;31.10;1.30;;;;;;4990841;28;21202;-67
2022/06/16 12:10:14;;;;;;;26.30;4.50;;;31.00;1.00;;;;;;4995651;28;20454;-67
2022/06/16 12:12:45;;;;;;;26.70;4.43;;;30.90;1.60;;;;;;4996449;28;20464;-67
2022/06/16 12:15:29;;;;;;;26.10;4.70;;;30.70;1.00;;;;;;5001863;28;20502;-67
2022/06/16 12:18:06;;;;;;;26.10;4.13;;;30.60;1.00;;;;;;4992190;28;20982;-67
2022/06/16 12:20:44;;;;;;;25.73;4.33;;;30.60;1.40;;;;;;5004558;28;20574;-67
2022/06/16 12:23:15;;;;;;;27.70;5.10;;;30.50;2.20;;;;;;4997559;28;20494;-69
2022/06/16 12:25:51;;;;;;;32.13;5.03;;;30.50;1.70;;;;;;4995556;28;20484;-67
2022/06/16 12:28:24;;;;;;;26.73;4.70;;;30.50;2.10;;;;;;4997031;28;20491;-66
2022/06/16 12:30:56;;;;;;;27.03;4.57;;;30.40;2.30;;;;;;4992841;28;20471;-67
2022/06/16 12:33:30;;;;;;;27.27;4.60;;;30.40;2.40;;;;;;5000369;28;20519;-68
2022/06/16 12:36:05;;;;;;;25.70;5.07;;;30.40;2.30;;;;;;4991622;28;20475;-65
2022/06/16 12:38:36;;;;;;;26.70;5.00;;;30.40;2.60;;;;;;4988251;28;20977;-68
2022/06/16 12:41:07;;;;;;;26.87;4.77;;;30.30;3.00;;;;;;4992733;28;20479;-67
2022/06/16 12:43:39;;;;;;;27.60;5.43;;;30.30;2.60;;;;;;4990102;28;20484;-67
2022/06/16 12:46:08;;;;;;;26.20;4.07;;;30.30;3.00;;;;;;4996353;28;20543;-67
2022/06/16 12:48:41;;;;;;;27.40;4.50;;;30.30;1.90;;;;;;5001116;28;20977;-66
2022/06/16 12:51:15;;;;;;;25.93;4.17;;;30.30;1.00;;;;;;4987566;28;20452;-67
2022/06/16 12:53:47;;;;;;;28.83;4.60;;;30.20;1.00;;;;;;4991702;28;20515;-67
2022/06/16 12:56:20;;;;;;;29.23;4.77;;;30.20;1.00;;;;;;4993057;28;20479;-64
2022/06/16 12:58:51;;;;;;;27.50;5.20;;;30.20;1.00;;;;;;4991871;28;20491;-62
2022/06/16 13:01:18;;;;;;;31.50;4.67;;;30.20;1.00;;;;;;4994738;28;20911;-65
2022/06/16 13:03:57;;;;;;;26.27;4.40;;;30.10;1.00;;;;;;4996933;28;20487;-64
2022/06/16 13:06:26;;;;;;;26.87;4.30;;;30.10;1.00;;;;;;4994227;28;20477;-64
2022/06/16 13:08:57;;;;;;;26.93;4.67;;;30.00;1.00;;;;;;4999606;28;21269;-62
2022/06/16 13:11:31;;;;;;;28.30;4.90;;;30.00;1.00;;;;;;4989349;28;20464;-61
2022/06/16 13:14:01;;;;;;;27.23;5.00;;;29.90;1.00;;;;;;4993547;28;20674;-65
2022/06/16 13:16:32;;;;;;;29.43;4.67;;;29.90;1.00;;;;;;4995544;28;20841;-64
2022/06/16 13:19:02;;;;;;;27.00;5.67;;;29.80;1.00;;;;;;4993223;28;20468;-63
2022/06/16 13:21:32;;;;;;;26.30;4.80;;;29.80;1.00;;;;;;4996782;28;20494;-65